createdAt,value
2022-12-08T00:03:34.529Z,98823.03
2022-12-08T00:06:51.642Z,98830.38
2022-12-08T00:09:41.684Z,98809.56
2022-12-08T00:12:28.705Z,98791.91
2022-12-08T00:15:15.842Z,98822.19
2022-12-08T00:18:02.897Z,98829.75
2022-12-08T00:20:58.201Z,98820.97
2022-12-08T00:23:45.267Z,98812.28
2022-12-08T00:26:32.423Z,98805.19
2022-12-08T00:29:19.812Z,98800.28
2022-12-08T00:32:07.296Z,98811.16
2022-12-08T00:34:54.448Z,98800.09
2022-12-08T00:37:41.512Z,98779.00
2022-12-08T00:40:28.591Z,98800.97
2022-12-08T00:43:15.861Z,98780.50
2022-12-08T00:46:02.962Z,98807.28
2022-12-08T00:48:50.124Z,98800.00
2022-12-08T00:51:37.579Z,98781.06
2022-12-08T00:54:24.811Z,98791.72
2022-12-08T00:57:11.849Z,98794.81
2022-12-08T00:59:59.002Z,98778.34
2022-12-08T01:02:46.126Z,98796.03
2022-12-08T01:05:33.194Z,98794.25
2022-12-08T01:08:20.359Z,98782.50
2022-12-08T01:11:14.467Z,98804.34
2022-12-08T01:14:02.093Z,98807.75
2022-12-08T01:16:49.338Z,98784.09
2022-12-08T01:19:37.905Z,98798.41
2022-12-08T01:22:25.260Z,98805.28
2022-12-08T01:25:12.449Z,98790.75
2022-12-08T01:27:59.492Z,98798.59
2022-12-08T01:30:46.610Z,98798.81
2022-12-08T01:33:33.744Z,98764.19
2022-12-08T01:36:27.079Z,98794.00
2022-12-08T01:39:17.302Z,98780.13
2022-12-08T01:42:04.364Z,98793.44
2022-12-08T01:45:06.774Z,98777.28
2022-12-08T01:47:59.172Z,98786.25
2022-12-08T01:50:48.168Z,98748.53
2022-12-08T01:53:35.295Z,98745.06
2022-12-08T01:56:35.188Z,98762.13
2022-12-08T01:59:22.723Z,98758.16
2022-12-08T02:02:11.509Z,98711.59
2022-12-08T02:04:58.822Z,98754.69
2022-12-08T02:07:47.002Z,98754.59
2022-12-08T02:10:38.544Z,98737.03
2022-12-08T02:13:26.100Z,98754.19
2022-12-08T02:16:31.791Z,98749.00
2022-12-08T02:19:59.639Z,98733.63
2022-12-08T02:22:57.683Z,98737.50
2022-12-08T02:25:47.815Z,98735.81
2022-12-08T02:29:10.235Z,98721.19
2022-12-08T02:32:26.884Z,98739.13
2022-12-08T02:35:27.477Z,98721.69
2022-12-08T02:38:20.413Z,98729.41
2022-12-08T02:41:35.249Z,98715.63
2022-12-08T02:44:29.130Z,98727.44
2022-12-08T02:47:19.047Z,98719.69
2022-12-08T02:50:07.612Z,98696.97
2022-12-08T02:52:55.252Z,98718.19
2022-12-08T02:56:07.149Z,98721.41
2022-12-08T02:59:12.605Z,98722.16
2022-12-08T03:02:16.758Z,98687.81
2022-12-08T03:05:36.346Z,98686.03
2022-12-08T03:08:23.428Z,98694.22
2022-12-08T03:11:22.301Z,98695.31
2022-12-08T03:14:14.471Z,98686.13
2022-12-08T03:17:04.701Z,98655.09
2022-12-08T03:19:53.793Z,98680.84
2022-12-08T03:22:42.325Z,98658.34
2022-12-08T03:25:34.196Z,98682.06
2022-12-08T03:28:23.794Z,98681.69
2022-12-08T03:31:13.323Z,98678.16
2022-12-08T03:34:02.907Z,98659.72
2022-12-08T03:36:52.100Z,98655.84
2022-12-08T03:39:39.148Z,98664.81
2022-12-08T03:42:26.292Z,98635.53
2022-12-08T03:45:13.384Z,98661.41
2022-12-08T03:48:00.471Z,98636.06
2022-12-08T03:50:47.509Z,98638.63
2022-12-08T03:53:34.664Z,98635.97
2022-12-08T03:56:30.827Z,98656.03
2022-12-08T03:59:18.020Z,98626.44
2022-12-08T04:02:05.099Z,98617.78
2022-12-08T04:04:58.501Z,98646.88
2022-12-08T04:07:45.661Z,98621.53
2022-12-08T04:10:32.749Z,98653.00
2022-12-08T04:13:19.955Z,98639.81
2022-12-08T04:16:07.744Z,98638.97
2022-12-08T04:18:54.938Z,98639.91
2022-12-08T04:21:42.024Z,98629.44
2022-12-08T04:24:29.192Z,98613.91
2022-12-08T04:27:16.246Z,98620.03
2022-12-08T04:30:03.979Z,98627.16
2022-12-08T04:32:51.327Z,98598.81
2022-12-08T04:35:38.379Z,98631.72
2022-12-08T04:38:25.569Z,98639.75
2022-12-08T04:41:12.624Z,98603.97
2022-12-08T04:43:59.705Z,98622.94
2022-12-08T04:46:48.950Z,98628.66
2022-12-08T04:49:36.120Z,98634.53
2022-12-08T04:52:23.185Z,98628.16
2022-12-08T04:55:10.306Z,98599.75
2022-12-08T04:57:57.373Z,98616.63
2022-12-08T05:00:44.726Z,98589.19
2022-12-08T05:03:31.787Z,98588.13
2022-12-08T05:06:18.862Z,98582.16
2022-12-08T05:09:06.112Z,98621.63
2022-12-08T05:11:53.225Z,98582.75
2022-12-08T05:14:40.356Z,98618.81
2022-12-08T05:17:27.448Z,98589.09
2022-12-08T05:20:14.585Z,98607.16
2022-12-08T05:23:01.712Z,98609.66
2022-12-08T05:25:48.764Z,98597.88
2022-12-08T05:28:43.895Z,98600.25
2022-12-08T05:31:31.663Z,98573.81
2022-12-08T05:34:25.781Z,98582.94
2022-12-08T05:37:12.867Z,98579.31
2022-12-08T05:40:00.112Z,98581.09
2022-12-08T05:42:47.074Z,98604.53
2022-12-08T05:45:34.513Z,98594.22
2022-12-08T05:48:21.625Z,98591.44
2022-12-08T05:51:19.925Z,98593.97
2022-12-08T05:54:06.903Z,98598.50
2022-12-08T05:56:53.884Z,98604.97
2022-12-08T05:59:40.910Z,98605.81
2022-12-08T06:02:28.060Z,98591.53
2022-12-08T06:05:15.133Z,98597.81
2022-12-08T06:08:02.518Z,98598.31
2022-12-08T06:10:49.869Z,98599.91
2022-12-08T06:13:37.032Z,98606.78
2022-12-08T06:16:26.423Z,98585.19
2022-12-08T06:19:13.590Z,98601.03
2022-12-08T06:22:00.686Z,98600.34
2022-12-08T06:24:47.759Z,98597.50
2022-12-08T06:27:34.748Z,98608.22
2022-12-08T06:30:21.794Z,98599.16
2022-12-08T06:33:08.909Z,98602.09
2022-12-08T06:35:55.883Z,98595.66
2022-12-08T06:38:43.851Z,98602.69
2022-12-08T06:41:30.996Z,98597.16
2022-12-08T06:44:17.995Z,98583.59
2022-12-08T06:47:05.328Z,98598.75
2022-12-08T06:49:52.306Z,98589.13
2022-12-08T06:52:49.315Z,98597.38
2022-12-08T06:56:02.830Z,98593.47
2022-12-08T06:58:52.805Z,98594.41
2022-12-08T07:01:40.368Z,98581.81
2022-12-08T07:04:27.583Z,98596.69
2022-12-08T07:07:14.606Z,98609.41
2022-12-08T07:10:02.048Z,98596.25
2022-12-08T07:12:49.330Z,98590.56
2022-12-08T07:15:36.392Z,98584.69
2022-12-08T07:18:23.385Z,98601.19
2022-12-08T07:21:13.208Z,98597.72
2022-12-08T07:24:00.246Z,98603.94
2022-12-08T07:26:47.271Z,98600.16
2022-12-08T07:29:34.322Z,98598.19
2022-12-08T07:32:21.500Z,98594.16
2022-12-08T07:35:09.660Z,98601.66
2022-12-08T07:37:57.882Z,98590.97
2022-12-08T07:40:44.849Z,98577.84
2022-12-08T07:43:32.137Z,98578.09
2022-12-08T07:46:21.266Z,98583.94
2022-12-08T07:49:08.311Z,98596.91
2022-12-08T07:51:55.321Z,98587.72
2022-12-08T07:54:42.318Z,98589.09
2022-12-08T07:57:29.350Z,98591.22
2022-12-08T08:00:16.955Z,98582.31
2022-12-08T08:03:04.131Z,98592.34
2022-12-08T08:05:52.036Z,98585.66
2022-12-08T08:08:39.179Z,98582.50
2022-12-08T08:11:26.524Z,98584.63
2022-12-08T08:14:13.524Z,98574.50
2022-12-08T08:17:00.729Z,98590.63
2022-12-08T08:19:47.829Z,98587.78
2022-12-08T08:22:35.684Z,98592.91
2022-12-08T08:25:22.907Z,98593.00
2022-12-08T08:28:09.961Z,98592.69
2022-12-08T08:30:57.352Z,98598.81
2022-12-08T08:33:44.485Z,98591.75
2022-12-08T08:36:31.803Z,98578.19
2022-12-08T08:39:18.809Z,98586.97
2022-12-08T08:42:05.871Z,98596.59
2022-12-08T08:44:52.881Z,98600.94
2022-12-08T08:47:39.840Z,98611.31
2022-12-08T08:50:30.518Z,98603.28
2022-12-08T08:53:21.796Z,98586.25
2022-12-08T08:56:16.492Z,98595.78
2022-12-08T08:59:04.011Z,98596.41
2022-12-08T09:01:51.056Z,98601.47
2022-12-08T09:04:38.166Z,98589.91
2022-12-08T09:07:25.248Z,98577.66
2022-12-08T09:10:12.304Z,98590.88
2022-12-08T09:12:59.363Z,98587.06
2022-12-08T09:15:46.497Z,98595.22
2022-12-08T09:18:33.804Z,98590.25
2022-12-08T09:21:24.395Z,98594.28
2022-12-08T09:24:15.811Z,98592.66
2022-12-08T09:27:02.887Z,98584.53
2022-12-08T09:29:49.945Z,98573.75
2022-12-08T09:32:36.985Z,98564.44
2022-12-08T09:35:24.011Z,98558.09
2022-12-08T09:38:11.429Z,98571.75
2022-12-08T09:40:59.041Z,98578.47
2022-12-08T09:44:02.768Z,98561.84
2022-12-08T09:46:52.956Z,98563.03
2022-12-08T09:49:46.427Z,98546.13
2022-12-08T09:53:09.575Z,98551.28
2022-12-08T09:56:00.932Z,98550.31
2022-12-08T09:58:49.132Z,98541.75
2022-12-08T10:01:41.817Z,98515.94
2022-12-08T10:04:32.572Z,98534.94
2022-12-08T10:07:41.978Z,98534.41
2022-12-08T10:10:42.013Z,98530.91
2022-12-08T10:13:43.716Z,98523.59
2022-12-08T10:16:39.340Z,98512.50
2022-12-08T10:19:27.899Z,98510.34
2022-12-08T10:22:22.703Z,98501.75
2022-12-08T10:25:44.089Z,98502.84
2022-12-08T10:28:41.433Z,98500.72
2022-12-08T10:31:32.847Z,98499.16
2022-12-08T10:34:27.044Z,98498.91
2022-12-08T10:37:19.456Z,98489.75
2022-12-08T10:40:19.468Z,98496.97
2022-12-08T10:43:15.795Z,98484.03
2022-12-08T10:46:12.278Z,98479.66
2022-12-08T10:49:05.258Z,98464.56
2022-12-08T10:51:52.680Z,98469.50
2022-12-08T10:54:43.707Z,98446.09
2022-12-08T10:57:31.400Z,98454.38
2022-12-08T11:00:27.898Z,98444.72
2022-12-08T11:03:27.574Z,98453.13
2022-12-08T11:06:22.236Z,98448.59
2022-12-08T11:09:16.924Z,98435.75
2022-12-08T11:12:24.194Z,98437.88
2022-12-08T11:15:18.083Z,98435.34
2022-12-08T11:18:20.916Z,98432.44
2022-12-08T11:21:16.555Z,98428.91
2022-12-08T11:24:15.458Z,98423.66
2022-12-08T11:27:05.727Z,98404.97
2022-12-08T11:29:52.757Z,98417.88
2022-12-08T11:32:44.737Z,98415.34
2022-12-08T11:35:39.282Z,98407.63
2022-12-08T11:38:27.924Z,98411.13
2022-12-08T11:41:22.682Z,98412.63
2022-12-08T11:44:18.542Z,98404.97
2022-12-08T11:47:11.964Z,98399.88
2022-12-08T11:50:35.443Z,98400.03
2022-12-08T11:53:54.517Z,98404.69
2022-12-08T11:56:51.573Z,98393.41
2022-12-08T11:59:44.515Z,98382.13
2022-12-08T12:02:42.667Z,98389.59
2022-12-08T12:06:13.184Z,98385.44
2022-12-08T12:09:39.104Z,98386.22
2022-12-08T12:12:56.120Z,98377.53
2022-12-08T12:16:14.488Z,98381.47
2022-12-08T12:19:11.364Z,98383.97
2022-12-08T12:22:00.161Z,98375.59
2022-12-08T12:24:51.340Z,98383.34
2022-12-08T12:27:41.764Z,98378.88
2022-12-08T12:30:51.531Z,98363.25
2022-12-08T12:33:39.076Z,98366.88
2022-12-08T12:36:26.491Z,98361.69
2022-12-08T12:39:15.292Z,98364.47
2022-12-08T12:42:04.825Z,98362.16
2022-12-08T12:45:16.497Z,98346.44
2022-12-08T12:48:03.437Z,98353.47
2022-12-08T12:50:51.257Z,98355.00
2022-12-08T12:53:38.194Z,98362.69
2022-12-08T12:56:53.567Z,98361.50
2022-12-08T12:59:55.530Z,98358.72
2022-12-08T13:02:51.171Z,98353.06
2022-12-08T13:05:50.819Z,98317.78
2022-12-08T13:08:41.037Z,98345.63
2022-12-08T13:11:28.439Z,98338.81
2022-12-08T13:14:28.946Z,98350.59
2022-12-08T13:17:29.524Z,98341.25
2022-12-08T13:20:23.191Z,98350.41
2022-12-08T13:23:27.104Z,98338.88
2022-12-08T13:26:18.584Z,98335.53
2022-12-08T13:29:15.435Z,98341.13
2022-12-08T13:32:03.065Z,98341.59
2022-12-08T13:35:00.254Z,98332.19
2022-12-08T13:37:54.772Z,98328.94
2022-12-08T13:40:43.883Z,98337.03
2022-12-08T13:44:31.044Z,98345.97
2022-12-08T13:57:02.685Z,98355.50
2022-12-08T13:59:44.429Z,98343.50
2022-12-08T14:02:47.045Z,98358.59
2022-12-08T14:06:11.170Z,98347.78
2022-12-08T14:09:02.287Z,98342.34
2022-12-08T14:11:55.546Z,98348.75
2022-12-08T14:15:03.603Z,98351.41
2022-12-08T14:17:53.657Z,98355.66
2022-12-08T14:21:05.047Z,98350.28
2022-12-08T14:23:47.939Z,98347.63
2022-12-08T14:26:35.550Z,98350.66
2022-12-08T14:29:33.091Z,98364.75
2022-12-08T14:32:44.529Z,98354.97
2022-12-08T14:35:33.811Z,98359.22
2022-12-08T14:38:22.580Z,98361.41
2022-12-08T14:41:11.969Z,98350.66
2022-12-08T14:44:01.352Z,98342.91
2022-12-08T14:47:09.839Z,98347.22
2022-12-08T14:49:57.318Z,98346.84
2022-12-08T14:52:45.242Z,98353.19
2022-12-08T14:55:37.723Z,98359.06
2022-12-08T14:58:30.383Z,98356.97
2022-12-08T15:01:23.629Z,98361.75
2022-12-08T15:04:16.618Z,98369.38
2022-12-08T15:07:16.579Z,98374.38
2022-12-08T15:10:20.089Z,98369.03
2022-12-08T15:13:10.307Z,98372.84
2022-12-08T15:15:58.096Z,98378.72
2022-12-08T15:18:45.390Z,98374.59
2022-12-08T15:21:38.398Z,98369.63
2022-12-08T15:24:30.055Z,98360.66
2022-12-08T15:27:23.461Z,98363.31
2022-12-08T15:30:17.536Z,98378.53
2022-12-08T15:33:04.616Z,98372.50
2022-12-08T15:39:03.055Z,98342.78
2022-12-08T15:41:50.163Z,98368.75
2022-12-08T15:44:37.270Z,98341.81
2022-12-08T15:47:25.152Z,98359.50
2022-12-08T15:50:20.700Z,98336.91
2022-12-08T15:53:10.689Z,98353.06
2022-12-08T15:59:18.303Z,98353.22
2022-12-08T16:02:19.420Z,98361.06
2022-12-08T16:05:42.875Z,98312.00
2022-12-08T16:08:44.964Z,98342.97
2022-12-08T16:12:08.838Z,98319.47
2022-12-08T16:18:12.931Z,98355.34
2022-12-08T16:24:11.640Z,98374.84
2022-12-08T16:30:18.637Z,98280.06
2022-12-08T16:33:06.291Z,98293.06
2022-12-08T16:35:56.862Z,98326.78
2022-12-08T16:38:45.111Z,98325.53
2022-12-08T16:41:51.679Z,98307.13
2022-12-08T16:44:44.064Z,98291.81
2022-12-08T16:47:31.977Z,98303.03
2022-12-08T16:50:34.670Z,98348.50
2022-12-08T16:53:27.023Z,98377.84
2022-12-08T16:56:35.651Z,98331.41
2022-12-08T16:59:23.184Z,98381.88
2022-12-08T17:02:16.585Z,98353.84
2022-12-08T17:05:05.069Z,98340.88
2022-12-08T17:07:55.456Z,98370.47
2022-12-08T17:10:43.172Z,98333.66
2022-12-08T17:13:33.501Z,98376.69
2022-12-08T17:16:23.997Z,98370.16
2022-12-08T17:19:14.029Z,98373.72
2022-12-08T17:22:02.454Z,98358.00
2022-12-08T17:24:49.933Z,98353.63
2022-12-08T17:27:37.534Z,98349.50
2022-12-08T17:30:25.501Z,98313.09
2022-12-08T17:33:12.974Z,98330.41
2022-12-08T17:36:00.283Z,98371.03
2022-12-08T17:38:47.670Z,98330.22
2022-12-08T17:41:35.945Z,98371.19
2022-12-08T17:44:25.303Z,98353.84
2022-12-08T17:47:12.950Z,98347.94
2022-12-08T17:50:01.442Z,98368.41
2022-12-08T17:52:51.949Z,98363.28
2022-12-08T17:55:41.477Z,98307.56
2022-12-08T17:58:32.576Z,98312.63
2022-12-08T18:01:20.883Z,98335.66
2022-12-08T18:04:10.827Z,98354.34
2022-12-08T18:07:01.142Z,98323.66
2022-12-08T18:09:48.779Z,98347.97
2022-12-08T18:12:36.778Z,98352.00
2022-12-08T18:15:25.133Z,98318.59
2022-12-08T18:18:12.546Z,98320.72
2022-12-08T18:21:03.174Z,98330.22
2022-12-08T18:23:52.195Z,98341.75
2022-12-08T18:26:40.314Z,98328.63
2022-12-08T18:29:29.933Z,98353.59
2022-12-08T18:32:17.331Z,98287.88
2022-12-08T18:35:05.600Z,98352.81
2022-12-08T18:37:53.434Z,98360.00
2022-12-08T18:40:41.104Z,98302.31
2022-12-08T18:43:28.807Z,98309.38
2022-12-08T18:46:21.437Z,98318.28
2022-12-08T18:49:14.210Z,98333.25
2022-12-08T18:52:02.033Z,98359.66
2022-12-08T18:55:05.873Z,98361.00
2022-12-08T18:57:54.488Z,98322.31
2022-12-08T19:00:42.760Z,98354.00
2022-12-08T19:03:30.187Z,98310.34
2022-12-08T19:06:19.246Z,98334.84
2022-12-08T19:09:12.371Z,98332.94
2022-12-08T19:12:00.224Z,98311.72
2022-12-08T19:14:49.017Z,98360.94
2022-12-08T19:17:37.071Z,98345.03
2022-12-08T19:20:25.208Z,98297.56
2022-12-08T19:23:14.642Z,98320.00
2022-12-08T19:26:03.469Z,98319.38
2022-12-08T19:28:51.277Z,98316.41
2022-12-08T19:31:39.040Z,98354.22
2022-12-08T19:34:26.964Z,98339.09
2022-12-08T19:37:15.549Z,98325.78
2022-12-08T19:40:27.201Z,98347.03
2022-12-08T19:43:38.679Z,98353.41
2022-12-08T19:46:29.066Z,98347.28
2022-12-08T19:49:17.092Z,98338.19
2022-12-08T19:52:05.763Z,98318.03
2022-12-08T19:54:53.629Z,98296.25
2022-12-08T19:57:41.645Z,98299.44
2022-12-08T20:00:32.113Z,98295.31
2022-12-08T20:03:22.053Z,98365.56
2022-12-08T20:06:17.175Z,98345.72
2022-12-08T20:09:05.170Z,98339.19
2022-12-08T20:11:54.872Z,98334.44
2022-12-08T20:14:46.064Z,98334.53
2022-12-08T20:17:34.798Z,98343.53
2022-12-08T20:20:24.096Z,98312.91
2022-12-08T20:23:12.266Z,98300.38
2022-12-08T20:26:00.031Z,98330.97
2022-12-08T20:28:48.179Z,98296.88
2022-12-08T20:31:37.629Z,98326.22
2022-12-08T20:34:27.495Z,98293.91
2022-12-08T20:37:15.058Z,98293.50
2022-12-08T20:40:02.882Z,98307.84
2022-12-08T20:42:52.130Z,98334.16
2022-12-08T20:45:40.769Z,98335.94
2022-12-08T20:48:28.598Z,98343.66
2022-12-08T20:51:20.557Z,98345.44
2022-12-08T20:54:10.284Z,98336.91
2022-12-08T20:57:02.076Z,98297.31
2022-12-08T20:59:50.871Z,98303.13
2022-12-08T21:02:43.205Z,98324.41
2022-12-08T21:05:32.749Z,98311.22
2022-12-08T21:08:20.901Z,98334.13
2022-12-08T21:11:09.523Z,98314.31
2022-12-08T21:13:57.028Z,98336.06
2022-12-08T21:16:44.572Z,98326.03
2022-12-08T21:22:02.472Z,98336.81
2022-12-08T21:24:49.646Z,98330.47
2022-12-08T21:27:37.787Z,98336.06
2022-12-08T21:30:24.914Z,98344.19
2022-12-08T21:33:12.099Z,98332.78
2022-12-08T21:36:10.139Z,98324.53
2022-12-08T21:39:00.806Z,98333.91
2022-12-08T21:42:06.372Z,98326.28
2022-12-08T21:44:53.686Z,98344.34
2022-12-08T21:47:41.326Z,98341.91
2022-12-08T21:50:28.533Z,98335.69
2022-12-08T21:53:15.630Z,98337.72
2022-12-08T21:56:07.773Z,98340.13
2022-12-08T21:58:54.968Z,98342.13
2022-12-08T22:01:43.586Z,98336.00
2022-12-08T22:04:31.138Z,98336.69
2022-12-08T22:07:20.049Z,98340.69
2022-12-08T22:10:08.717Z,98324.84
2022-12-08T22:12:56.242Z,98327.78
2022-12-08T22:15:43.306Z,98326.88
2022-12-08T22:18:30.761Z,98325.44
2022-12-08T22:21:18.428Z,98326.28
2022-12-08T22:24:06.468Z,98336.31
2022-12-08T22:26:54.089Z,98346.88
2022-12-08T22:29:41.379Z,98338.22
2022-12-08T22:32:28.643Z,98336.44
2022-12-08T22:35:15.918Z,98345.28
2022-12-08T22:38:03.149Z,98323.94
2022-12-08T22:40:50.406Z,98326.47
2022-12-08T22:43:37.703Z,98324.63
2022-12-08T22:46:26.967Z,98329.88
2022-12-08T22:49:14.340Z,98318.09
2022-12-08T22:52:01.493Z,98331.28
2022-12-08T22:54:48.883Z,98330.34
2022-12-08T22:57:35.991Z,98339.69
2022-12-08T23:00:23.248Z,98335.00
2022-12-08T23:03:10.480Z,98335.28
2022-12-08T23:05:57.631Z,98330.94
2022-12-08T23:08:45.865Z,98325.78
2022-12-08T23:11:33.096Z,98326.53
2022-12-08T23:14:20.298Z,98336.25
2022-12-08T23:17:07.538Z,98336.66
2022-12-08T23:19:54.704Z,98318.91
2022-12-08T23:22:42.065Z,98325.69
2022-12-08T23:25:29.115Z,98329.25
2022-12-08T23:28:16.199Z,98323.16
2022-12-08T23:31:08.042Z,98327.88
2022-12-08T23:33:55.585Z,98330.03
2022-12-08T23:36:42.875Z,98333.03
2022-12-08T23:39:30.156Z,98321.56
2022-12-08T23:42:17.215Z,98314.78
2022-12-08T23:45:05.498Z,98313.28
2022-12-08T23:47:52.670Z,98306.50
2022-12-08T23:50:39.716Z,98311.81
2022-12-08T23:53:28.444Z,98302.28
2022-12-08T23:56:17.946Z,98297.78
2022-12-08T23:59:05.180Z,98309.94
